PWSweather.com
Personal Weather Stations
Station Observations
WD4JKH
Forsyth, GA 31029

Forsyth, GA 31029

Lat: 33.033225, Lon: -83.927995

Elevation: 709

Station Type: Davis Vantage VUE

High Low Average
Temperature 79.8°F26.6°C 60.3°F15.7°C 68.3°F20.2°C
Dew Point 62.3°F16.8°C 54.1°F12.3°C 58.9°F14.9°C
Winds 11.8 mph 19.0 kmh Calm Calm 4.0 mph SW6.4 kmh SW
Wind Gusts 20.0 mph32.2 kmh 1.0 mph1.6 kmh 9.0 mph14.5 kmh
Humidity 98% 45% 75%
Pressure 30.14 in1020.7 mb 30.05 in1017.6 mb -
Precipitation 0.01 in0.3 mm - -
Hour Temp Dew Point Humidity Winds Wind Gusts Pressure Precip Precip Rate Daily Precip Total
12:04 AM 62.5°F16.9°C 61.9°F16.6°C 98% 1.2 mph SW1.9 kmh SW 2.0 mph3.2 kmh 30.11 in1019.6 mb 0.00 in0.0 mm 0.00 in0.0 mm 0.00 in0.0 mm
12:09 AM 62.5°F16.9°C 61.9°F16.6°C 98% 1.0 mph SW1.6 kmh SW 2.0 mph3.2 kmh 30.11 in1019.6 mb 0.00 in0.0 mm 0.00 in0.0 mm 0.00 in0.0 mm
12:14 AM 62.4°F16.9°C 61.8°F16.6°C 98% 1.0 mph SW1.6 kmh SW 2.0 mph3.2 kmh 30.11 in1019.6 mb 0.00 in0.0 mm 0.00 in0.0 mm 0.00 in0.0 mm
12:19 AM 62.4°F16.9°C 61.8°F16.6°C 98% 1.0 mph SW1.6 kmh SW 2.0 mph3.2 kmh 30.12 in1020.0 mb 0.00 in0.0 mm 0.00 in0.0 mm 0.00 in0.0 mm
12:24 AM 62.3°F16.8°C 61.7°F16.5°C 98% 1.0 mph SW1.6 kmh SW 2.0 mph3.2 kmh 30.11 in1019.6 mb 0.00 in0.0 mm 0.00 in0.0 mm 0.00 in0.0 mm
12:29 AM 62.2°F16.8°C 61.6°F16.4°C 98% 1.0 mph SW1.6 kmh SW 1.0 mph1.6 kmh 30.11 in1019.6 mb 0.00 in0.0 mm 0.00 in0.0 mm 0.00 in0.0 mm
12:34 AM 62.1°F16.7°C 61.5°F16.4°C 98% 1.0 mph SW1.6 kmh SW 1.0 mph1.6 kmh 30.12 in1020.0 mb 0.00 in0.0 mm 0.00 in0.0 mm 0.00 in0.0 mm
12:39 AM 62.1°F16.7°C 61.5°F16.4°C 98% Calm Calm 1.0 mph1.6 kmh 30.12 in1020.0 mb 0.00 in0.0 mm 0.00 in0.0 mm 0.00 in0.0 mm
12:44 AM 62.1°F16.7°C 61.5°F16.4°C 98% 1.0 mph SW1.6 kmh SW 1.0 mph1.6 kmh 30.12 in1020.0 mb 0.00 in0.0 mm 0.00 in0.0 mm 0.00 in0.0 mm
12:49 AM 62.1°F16.7°C 61.5°F16.4°C 98% 1.0 mph SW1.6 kmh SW 2.0 mph3.2 kmh 30.12 in1020.0 mb 0.00 in0.0 mm 0.00 in0.0 mm 0.00 in0.0 mm
12:54 AM 62.2°F16.8°C 61.6°F16.4°C 98% 1.0 mph SW1.6 kmh SW 2.0 mph3.2 kmh 30.12 in1020.0 mb 0.00 in0.0 mm 0.00 in0.0 mm 0.00 in0.0 mm
12:59 AM 62.2°F16.8°C 61.6°F16.4°C 98% 1.0 mph SW1.6 kmh SW 2.0 mph3.2 kmh 30.12 in1020.0 mb 0.00 in0.0 mm 0.00 in0.0 mm 0.00 in0.0 mm
01:04 AM 62.2°F16.8°C 61.6°F16.4°C 98% 1.1 mph SW1.8 kmh SW 2.0 mph3.2 kmh 30.12 in1020.0 mb 0.00 in0.0 mm 0.00 in0.0 mm 0.00 in0.0 mm
01:09 AM 62.3°F16.8°C 61.7°F16.5°C 98% 1.5 mph SW2.4 kmh SW 2.0 mph3.2 kmh 30.12 in1020.0 mb 0.00 in0.0 mm 0.00 in0.0 mm 0.00 in0.0 mm
01:14 AM 62.3°F16.8°C 61.7°F16.5°C 98% 1.0 mph WSW1.6 kmh WSW 2.0 mph3.2 kmh 30.12 in1020.0 mb 0.00 in0.0 mm 0.00 in0.0 mm 0.00 in0.0 mm
01:19 AM 62.4°F16.9°C 61.8°F16.6°C 98% 1.1 mph SW1.8 kmh SW 3.0 mph4.8 kmh 30.13 in1020.3 mb 0.00 in0.0 mm 0.00 in0.0 mm 0.00 in0.0 mm
01:24 AM 62.4°F16.9°C 61.8°F16.6°C 98% 1.5 mph SW2.4 kmh SW 3.0 mph4.8 kmh 30.12 in1020.0 mb 0.00 in0.0 mm 0.00 in0.0 mm 0.00 in0.0 mm
01:29 AM 62.4°F16.9°C 61.8°F16.6°C 98% Calm Calm 3.0 mph4.8 kmh 30.12 in1020.0 mb 0.00 in0.0 mm 0.00 in0.0 mm 0.00 in0.0 mm
01:34 AM 62.4°F16.9°C 61.8°F16.6°C 98% 1.0 mph WSW1.6 kmh WSW 3.0 mph4.8 kmh 30.13 in1020.3 mb 0.00 in0.0 mm 0.00 in0.0 mm 0.00 in0.0 mm
01:39 AM 62.5°F16.9°C 61.9°F16.6°C 98% 1.0 mph WSW1.6 kmh WSW 3.0 mph4.8 kmh 30.13 in1020.3 mb 0.00 in0.0 mm 0.00 in0.0 mm 0.00 in0.0 mm
01:44 AM 62.5°F16.9°C 61.9°F16.6°C 98% 1.0 mph SW1.6 kmh SW 2.0 mph3.2 kmh 30.13 in1020.3 mb 0.00 in0.0 mm 0.00 in0.0 mm 0.00 in0.0 mm
01:49 AM 62.5°F16.9°C 61.9°F16.6°C 98% Calm Calm 3.0 mph4.8 kmh 30.13 in1020.3 mb 0.00 in0.0 mm 0.00 in0.0 mm 0.00 in0.0 mm
01:54 AM 62.6°F17.0°C 62.0°F16.7°C 98% 1.0 mph WSW1.6 kmh WSW 3.0 mph4.8 kmh 30.13 in1020.3 mb 0.00 in0.0 mm 0.00 in0.0 mm 0.00 in0.0 mm
01:59 AM 62.6°F17.0°C 62.0°F16.7°C 98% 1.0 mph WSW1.6 kmh WSW 4.0 mph6.4 kmh 30.13 in1020.3 mb 0.00 in0.0 mm 0.00 in0.0 mm 0.00 in0.0 mm
02:04 AM 62.6°F17.0°C 62.0°F16.7°C 98% 1.2 mph SW1.9 kmh SW 4.0 mph6.4 kmh 30.13 in1020.3 mb 0.00 in0.0 mm 0.00 in0.0 mm 0.00 in0.0 mm
02:09 AM 62.6°F17.0°C 62.0°F16.7°C 98% Calm Calm 4.0 mph6.4 kmh 30.13 in1020.3 mb 0.00 in0.0 mm 0.00 in0.0 mm 0.00 in0.0 mm
02:14 AM 62.6°F17.0°C 62.0°F16.7°C 98% 1.0 mph SW1.6 kmh SW 4.0 mph6.4 kmh 30.13 in1020.3 mb 0.00 in0.0 mm 0.00 in0.0 mm 0.00 in0.0 mm
02:19 AM 62.6°F17.0°C 62.0°F16.7°C 98% 1.0 mph SW1.6 kmh SW 2.0 mph3.2 kmh 30.13 in1020.3 mb 0.00 in0.0 mm 0.00 in0.0 mm 0.00 in0.0 mm
02:24 AM 62.7°F17.1°C 62.1°F16.7°C 98% 1.6 mph WSW2.6 kmh WSW 4.0 mph6.4 kmh 30.14 in1020.7 mb 0.00 in0.0 mm 0.00 in0.0 mm 0.00 in0.0 mm
02:29 AM 62.7°F17.1°C 62.1°F16.7°C 98% 1.7 mph SW2.7 kmh SW 4.0 mph6.4 kmh 30.14 in1020.7 mb 0.00 in0.0 mm 0.00 in0.0 mm 0.00 in0.0 mm
02:34 AM 62.7°F17.1°C 62.1°F16.7°C 98% 1.1 mph SW1.8 kmh SW 4.0 mph6.4 kmh 30.14 in1020.7 mb 0.00 in0.0 mm 0.00 in0.0 mm 0.00 in0.0 mm
02:39 AM 62.7°F17.1°C 62.1°F16.7°C 98% 1.7 mph SW2.7 kmh SW 4.0 mph6.4 kmh 30.14 in1020.7 mb 0.00 in0.0 mm 0.00 in0.0 mm 0.00 in0.0 mm
02:44 AM 62.6°F17.0°C 62.0°F16.7°C 98% 1.4 mph SW2.3 kmh SW 4.0 mph6.4 kmh 30.13 in1020.3 mb 0.00 in0.0 mm 0.00 in0.0 mm 0.00 in0.0 mm
02:49 AM 62.6°F17.0°C 62.0°F16.7°C 98% 1.2 mph SSW1.9 kmh SSW 4.0 mph6.4 kmh 30.13 in1020.3 mb 0.00 in0.0 mm 0.00 in0.0 mm 0.00 in0.0 mm
02:54 AM 62.5°F16.9°C 61.9°F16.6°C 98% 1.5 mph SW2.4 kmh SW 4.0 mph6.4 kmh 30.13 in1020.3 mb 0.00 in0.0 mm 0.00 in0.0 mm 0.00 in0.0 mm
02:59 AM 62.4°F16.9°C 61.8°F16.6°C 98% 1.1 mph SSW1.8 kmh SSW 3.0 mph4.8 kmh 30.13 in1020.3 mb 0.00 in0.0 mm 0.00 in0.0 mm 0.00 in0.0 mm
03:04 AM 62.4°F16.9°C 61.8°F16.6°C 98% 1.1 mph SW1.8 kmh SW 3.0 mph4.8 kmh 30.13 in1020.3 mb 0.00 in0.0 mm 0.00 in0.0 mm 0.00 in0.0 mm
03:09 AM 62.4°F16.9°C 61.8°F16.6°C 98% 1.3 mph SSW2.1 kmh SSW 3.0 mph4.8 kmh 30.13 in1020.3 mb 0.00 in0.0 mm 0.00 in0.0 mm 0.00 in0.0 mm
03:14 AM 62.3°F16.8°C 61.7°F16.5°C 98% 1.8 mph SW2.9 kmh SW 3.0 mph4.8 kmh 30.12 in1020.0 mb 0.00 in0.0 mm 0.00 in0.0 mm 0.00 in0.0 mm
03:19 AM 62.4°F16.9°C 61.8°F16.6°C 98% 1.9 mph SW3.1 kmh SW 5.0 mph8.0 kmh 30.12 in1020.0 mb 0.00 in0.0 mm 0.00 in0.0 mm 0.00 in0.0 mm
03:24 AM 62.5°F16.9°C 61.9°F16.6°C 98% 2.1 mph SW3.4 kmh SW 6.0 mph9.7 kmh 30.12 in1020.0 mb 0.00 in0.0 mm 0.00 in0.0 mm 0.00 in0.0 mm
03:29 AM 62.4°F16.9°C 61.8°F16.6°C 98% 2.4 mph SW3.9 kmh SW 6.0 mph9.7 kmh 30.12 in1020.0 mb 0.00 in0.0 mm 0.00 in0.0 mm 0.00 in0.0 mm
03:34 AM 62.4°F16.9°C 61.8°F16.6°C 98% 2.2 mph SW3.5 kmh SW 6.0 mph9.7 kmh 30.12 in1020.0 mb 0.00 in0.0 mm 0.00 in0.0 mm 0.00 in0.0 mm
03:39 AM 62.2°F16.8°C 61.6°F16.4°C 98% 2.1 mph SSW3.4 kmh SSW 6.0 mph9.7 kmh 30.13 in1020.3 mb 0.00 in0.0 mm 0.00 in0.0 mm 0.00 in0.0 mm
03:44 AM 62.1°F16.7°C 61.5°F16.4°C 98% 2.9 mph SW4.7 kmh SW 5.0 mph8.0 kmh 30.12 in1020.0 mb 0.00 in0.0 mm 0.00 in0.0 mm 0.00 in0.0 mm
03:49 AM 62.0°F16.7°C 61.4°F16.3°C 98% 2.7 mph SW4.3 kmh SW 5.0 mph8.0 kmh 30.12 in1020.0 mb 0.00 in0.0 mm 0.00 in0.0 mm 0.00 in0.0 mm
03:54 AM 62.0°F16.7°C 61.4°F16.3°C 98% 2.9 mph SSW4.7 kmh SSW 5.0 mph8.0 kmh 30.12 in1020.0 mb 0.00 in0.0 mm 0.00 in0.0 mm 0.00 in0.0 mm
03:59 AM 61.9°F16.6°C 61.3°F16.3°C 98% 1.7 mph SW2.7 kmh SW 5.0 mph8.0 kmh 30.12 in1020.0 mb 0.00 in0.0 mm 0.00 in0.0 mm 0.00 in0.0 mm
04:04 AM 61.8°F16.6°C 61.2°F16.2°C 98% 1.7 mph SW2.7 kmh SW 5.0 mph8.0 kmh 30.12 in1020.0 mb 0.00 in0.0 mm 0.00 in0.0 mm 0.00 in0.0 mm
04:09 AM 61.7°F16.5°C 61.1°F16.2°C 98% 1.8 mph SW2.9 kmh SW 5.0 mph8.0 kmh 30.12 in1020.0 mb 0.00 in0.0 mm 0.00 in0.0 mm 0.00 in0.0 mm
04:14 AM 61.7°F16.5°C 61.1°F16.2°C 98% 2.4 mph SW3.9 kmh SW 5.0 mph8.0 kmh 30.12 in1020.0 mb 0.00 in0.0 mm 0.00 in0.0 mm 0.00 in0.0 mm
04:19 AM 61.6°F16.4°C 61.0°F16.1°C 98% 1.8 mph SW2.9 kmh SW 5.0 mph8.0 kmh 30.12 in1020.0 mb 0.00 in0.0 mm 0.00 in0.0 mm 0.00 in0.0 mm
04:24 AM 61.6°F16.4°C 61.0°F16.1°C 98% 2.1 mph SW3.4 kmh SW 5.0 mph8.0 kmh 30.12 in1020.0 mb 0.00 in0.0 mm 0.00 in0.0 mm 0.00 in0.0 mm
04:29 AM 61.7°F16.5°C 61.1°F16.2°C 98% 2.0 mph SW3.2 kmh SW 5.0 mph8.0 kmh 30.12 in1020.0 mb 0.00 in0.0 mm 0.00 in0.0 mm 0.00 in0.0 mm
04:34 AM 61.7°F16.5°C 61.1°F16.2°C 98% 2.6 mph SW4.2 kmh SW 6.0 mph9.7 kmh 30.12 in1020.0 mb 0.00 in0.0 mm 0.00 in0.0 mm 0.00 in0.0 mm
04:39 AM 61.6°F16.4°C 61.0°F16.1°C 98% 2.1 mph SW3.4 kmh SW 6.0 mph9.7 kmh 30.12 in1020.0 mb 0.00 in0.0 mm 0.00 in0.0 mm 0.00 in0.0 mm
04:44 AM 61.7°F16.5°C 61.1°F16.2°C 98% 2.7 mph SW4.3 kmh SW 6.0 mph9.7 kmh 30.12 in1020.0 mb 0.00 in0.0 mm 0.00 in0.0 mm 0.00 in0.0 mm
04:49 AM 61.7°F16.5°C 61.1°F16.2°C 98% 2.6 mph SW4.2 kmh SW 6.0 mph9.7 kmh 30.12 in1020.0 mb 0.00 in0.0 mm 0.00 in0.0 mm 0.00 in0.0 mm
04:54 AM 61.7°F16.5°C 61.1°F16.2°C 98% 1.4 mph SW2.3 kmh SW 6.0 mph9.7 kmh 30.12 in1020.0 mb 0.00 in0.0 mm 0.00 in0.0 mm 0.00 in0.0 mm
04:59 AM 61.6°F16.4°C 61.0°F16.1°C 98% 1.9 mph SW3.1 kmh SW 6.0 mph9.7 kmh 30.11 in1019.6 mb 0.00 in0.0 mm 0.00 in0.0 mm 0.00 in0.0 mm
05:04 AM 61.5°F16.4°C 60.9°F16.1°C 98% 1.5 mph SW2.4 kmh SW 6.0 mph9.7 kmh 30.11 in1019.6 mb 0.00 in0.0 mm 0.00 in0.0 mm 0.00 in0.0 mm
05:09 AM 61.4°F16.3°C 60.8°F16.0°C 98% 2.6 mph SW4.2 kmh SW 5.0 mph8.0 kmh 30.11 in1019.6 mb 0.00 in0.0 mm 0.00 in0.0 mm 0.00 in0.0 mm
05:14 AM 61.4°F16.3°C 60.8°F16.0°C 98% 2.1 mph WSW3.4 kmh WSW 5.0 mph8.0 kmh 30.12 in1020.0 mb 0.00 in0.0 mm 0.00 in0.0 mm 0.00 in0.0 mm
05:19 AM 61.4°F16.3°C 60.8°F16.0°C 98% 1.6 mph SW2.6 kmh SW 5.0 mph8.0 kmh 30.12 in1020.0 mb 0.00 in0.0 mm 0.00 in0.0 mm 0.00 in0.0 mm
05:24 AM 61.5°F16.4°C 60.9°F16.1°C 98% 2.2 mph SW3.5 kmh SW 5.0 mph8.0 kmh 30.12 in1020.0 mb 0.00 in0.0 mm 0.00 in0.0 mm 0.00 in0.0 mm
05:29 AM 61.4°F16.3°C 60.8°F16.0°C 98% 1.9 mph SW3.1 kmh SW 5.0 mph8.0 kmh 30.12 in1020.0 mb 0.00 in0.0 mm 0.00 in0.0 mm 0.00 in0.0 mm
05:34 AM 61.4°F16.3°C 60.8°F16.0°C 98% 1.7 mph SW2.7 kmh SW 5.0 mph8.0 kmh 30.12 in1020.0 mb 0.00 in0.0 mm 0.00 in0.0 mm 0.00 in0.0 mm
05:39 AM 61.4°F16.3°C 60.8°F16.0°C 98% 1.5 mph SW2.4 kmh SW 5.0 mph8.0 kmh 30.12 in1020.0 mb 0.00 in0.0 mm 0.00 in0.0 mm 0.00 in0.0 mm
05:44 AM 61.4°F16.3°C 60.8°F16.0°C 98% 2.8 mph SW4.5 kmh SW 5.0 mph8.0 kmh 30.12 in1020.0 mb 0.00 in0.0 mm 0.00 in0.0 mm 0.00 in0.0 mm
05:49 AM 61.4°F16.3°C 60.8°F16.0°C 98% 3.1 mph SW5.0 kmh SW 7.0 mph11.3 kmh 30.12 in1020.0 mb 0.00 in0.0 mm 0.00 in0.0 mm 0.00 in0.0 mm
05:54 AM 61.4°F16.3°C 60.8°F16.0°C 98% 2.8 mph SW4.5 kmh SW 7.0 mph11.3 kmh 30.12 in1020.0 mb 0.00 in0.0 mm 0.00 in0.0 mm 0.00 in0.0 mm
05:58 AM 61.3°F16.3°C 60.7°F15.9°C 98% 2.3 mph SW3.7 kmh SW 7.0 mph11.3 kmh 30.12 in1020.0 mb 0.00 in0.0 mm 0.00 in0.0 mm 0.00 in0.0 mm
06:03 AM 61.3°F16.3°C 60.7°F15.9°C 98% 2.2 mph SW3.5 kmh SW 7.0 mph11.3 kmh 30.12 in1020.0 mb 0.00 in0.0 mm 0.00 in0.0 mm 0.00 in0.0 mm
06:08 AM 61.2°F16.2°C 60.6°F15.9°C 98% 1.9 mph SW3.1 kmh SW 6.0 mph9.7 kmh 30.12 in1020.0 mb 0.00 in0.0 mm 0.00 in0.0 mm 0.00 in0.0 mm
06:13 AM 61.1°F16.2°C 60.5°F15.8°C 98% 1.6 mph SW2.6 kmh SW 6.0 mph9.7 kmh 30.12 in1020.0 mb 0.00 in0.0 mm 0.00 in0.0 mm 0.00 in0.0 mm
06:18 AM 61.1°F16.2°C 60.5°F15.8°C 98% 2.5 mph SW4.0 kmh SW 6.0 mph9.7 kmh 30.12 in1020.0 mb 0.00 in0.0 mm 0.00 in0.0 mm 0.00 in0.0 mm
06:23 AM 61.0°F16.1°C 60.4°F15.8°C 98% 2.2 mph SW3.5 kmh SW 6.0 mph9.7 kmh 30.12 in1020.0 mb 0.00 in0.0 mm 0.00 in0.0 mm 0.00 in0.0 mm
06:28 AM 61.0°F16.1°C 60.4°F15.8°C 98% 2.6 mph SW4.2 kmh SW 6.0 mph9.7 kmh 30.12 in1020.0 mb 0.00 in0.0 mm 0.00 in0.0 mm 0.00 in0.0 mm
06:33 AM 60.9°F16.1°C 60.3°F15.7°C 98% 2.3 mph SW3.7 kmh SW 6.0 mph9.7 kmh 30.12 in1020.0 mb 0.00 in0.0 mm 0.00 in0.0 mm 0.00 in0.0 mm
06:38 AM 60.9°F16.1°C 60.3°F15.7°C 98% 1.8 mph SW2.9 kmh SW 5.0 mph8.0 kmh 30.12 in1020.0 mb 0.00 in0.0 mm 0.00 in0.0 mm 0.00 in0.0 mm
06:43 AM 60.9°F16.1°C 60.3°F15.7°C 98% 1.6 mph SW2.6 kmh SW 5.0 mph8.0 kmh 30.12 in1020.0 mb 0.00 in0.0 mm 0.00 in0.0 mm 0.00 in0.0 mm
06:48 AM 60.8°F16.0°C 60.2°F15.7°C 98% 1.5 mph SW2.4 kmh SW 4.0 mph6.4 kmh 30.12 in1020.0 mb 0.00 in0.0 mm 0.00 in0.0 mm 0.00 in0.0 mm
06:53 AM 60.8°F16.0°C 60.2°F15.7°C 98% 2.3 mph SW3.7 kmh SW 5.0 mph8.0 kmh 30.12 in1020.0 mb 0.00 in0.0 mm 0.00 in0.0 mm 0.00 in0.0 mm
06:58 AM 60.8°F16.0°C 60.2°F15.7°C 98% 3.1 mph SW5.0 kmh SW 5.0 mph8.0 kmh 30.12 in1020.0 mb 0.01 in0.3 mm 0.12 in3.0 mm 0.01 in0.3 mm
07:03 AM 60.7°F15.9°C 60.1°F15.6°C 98% 2.3 mph SW3.7 kmh SW 5.0 mph8.0 kmh 30.12 in1020.0 mb 0.01 in0.3 mm 0.00 in0.0 mm 0.01 in0.3 mm
07:08 AM 60.7°F15.9°C 60.1°F15.6°C 98% 2.7 mph SW4.3 kmh SW 5.0 mph8.0 kmh 30.12 in1020.0 mb 0.01 in0.3 mm 0.00 in0.0 mm 0.01 in0.3 mm
07:13 AM 60.5°F15.8°C 59.9°F15.5°C 98% 1.9 mph SW3.1 kmh SW 5.0 mph8.0 kmh 30.12 in1020.0 mb 0.01 in0.3 mm 0.00 in0.0 mm 0.01 in0.3 mm
07:18 AM 60.4°F15.8°C 59.8°F15.4°C 98% 2.4 mph SW3.9 kmh SW 5.0 mph8.0 kmh 30.12 in1020.0 mb 0.01 in0.3 mm 0.00 in0.0 mm 0.01 in0.3 mm
07:23 AM 60.4°F15.8°C 59.8°F15.4°C 98% 1.6 mph SW2.6 kmh SW 5.0 mph8.0 kmh 30.12 in1020.0 mb 0.01 in0.3 mm 0.00 in0.0 mm 0.01 in0.3 mm
07:28 AM 60.4°F15.8°C 59.8°F15.4°C 98% 1.7 mph SW2.7 kmh SW 5.0 mph8.0 kmh 30.12 in1020.0 mb 0.01 in0.3 mm 0.00 in0.0 mm 0.01 in0.3 mm
07:33 AM 60.3°F15.7°C 59.7°F15.4°C 98% 1.3 mph SW2.1 kmh SW 5.0 mph8.0 kmh 30.13 in1020.3 mb 0.01 in0.3 mm 0.00 in0.0 mm 0.01 in0.3 mm
07:38 AM 60.4°F15.8°C 59.8°F15.4°C 98% 2.3 mph SW3.7 kmh SW 5.0 mph8.0 kmh 30.13 in1020.3 mb 0.01 in0.3 mm 0.00 in0.0 mm 0.01 in0.3 mm
07:43 AM 60.3°F15.7°C 59.7°F15.4°C 98% 1.5 mph SW2.4 kmh SW 5.0 mph8.0 kmh 30.13 in1020.3 mb 0.01 in0.3 mm 0.00 in0.0 mm 0.01 in0.3 mm
07:48 AM 60.3°F15.7°C 59.7°F15.4°C 98% 2.2 mph SW3.5 kmh SW 5.0 mph8.0 kmh 30.13 in1020.3 mb 0.01 in0.3 mm 0.00 in0.0 mm 0.01 in0.3 mm
07:53 AM 60.3°F15.7°C 59.7°F15.4°C 98% 2.3 mph SW3.7 kmh SW 5.0 mph8.0 kmh 30.13 in1020.3 mb 0.01 in0.3 mm 0.00 in0.0 mm 0.01 in0.3 mm
07:58 AM 60.3°F15.7°C 59.7°F15.4°C 98% 2.6 mph SW4.2 kmh SW 5.0 mph8.0 kmh 30.13 in1020.3 mb 0.00 in0.0 mm 0.00 in0.0 mm 0.01 in0.3 mm
08:03 AM 60.3°F15.7°C 59.7°F15.4°C 98% 2.8 mph SW4.5 kmh SW 5.0 mph8.0 kmh 30.14 in1020.7 mb 0.00 in0.0 mm 0.00 in0.0 mm 0.01 in0.3 mm
08:08 AM 60.4°F15.8°C 59.8°F15.4°C 98% 1.9 mph SW3.1 kmh SW 5.0 mph8.0 kmh 30.14 in1020.7 mb 0.00 in0.0 mm 0.00 in0.0 mm 0.01 in0.3 mm
08:13 AM 60.5°F15.8°C 59.9°F15.5°C 98% 1.8 mph SW2.9 kmh SW 6.0 mph9.7 kmh 30.14 in1020.7 mb 0.00 in0.0 mm 0.00 in0.0 mm 0.01 in0.3 mm
08:18 AM 60.6°F15.9°C 60.0°F15.6°C 98% 2.2 mph SW3.5 kmh SW 6.0 mph9.7 kmh 30.14 in1020.7 mb 0.00 in0.0 mm 0.00 in0.0 mm 0.01 in0.3 mm
08:23 AM 60.7°F15.9°C 60.1°F15.6°C 98% 1.6 mph SW2.6 kmh SW 6.0 mph9.7 kmh 30.14 in1020.7 mb 0.00 in0.0 mm 0.00 in0.0 mm 0.01 in0.3 mm
08:28 AM 60.8°F16.0°C 60.2°F15.7°C 98% 1.7 mph SW2.7 kmh SW 6.0 mph9.7 kmh 30.14 in1020.7 mb 0.00 in0.0 mm 0.00 in0.0 mm 0.01 in0.3 mm
08:33 AM 60.9°F16.1°C 60.3°F15.7°C 98% 2.4 mph SW3.9 kmh SW 4.0 mph6.4 kmh 30.14 in1020.7 mb 0.00 in0.0 mm 0.00 in0.0 mm 0.01 in0.3 mm
08:38 AM 61.0°F16.1°C 60.4°F15.8°C 98% 1.7 mph SW2.7 kmh SW 4.0 mph6.4 kmh 30.14 in1020.7 mb 0.00 in0.0 mm 0.00 in0.0 mm 0.01 in0.3 mm
08:43 AM 61.1°F16.2°C 60.5°F15.8°C 98% 1.0 mph SW1.6 kmh SW 4.0 mph6.4 kmh 30.14 in1020.7 mb 0.00 in0.0 mm 0.00 in0.0 mm 0.01 in0.3 mm
08:48 AM 61.3°F16.3°C 60.7°F15.9°C 98% 2.0 mph SW3.2 kmh SW 5.0 mph8.0 kmh 30.14 in1020.7 mb 0.00 in0.0 mm 0.00 in0.0 mm 0.01 in0.3 mm
08:53 AM 61.5°F16.4°C 60.9°F16.1°C 98% 1.2 mph SW1.9 kmh SW 6.0 mph9.7 kmh 30.14 in1020.7 mb 0.00 in0.0 mm 0.00 in0.0 mm 0.01 in0.3 mm
08:58 AM 61.7°F16.5°C 61.1°F16.2°C 98% 2.5 mph SW4.0 kmh SW 6.0 mph9.7 kmh 30.14 in1020.7 mb 0.00 in0.0 mm 0.00 in0.0 mm 0.01 in0.3 mm
09:03 AM 62.0°F16.7°C 61.4°F16.3°C 98% 1.3 mph SW2.1 kmh SW 6.0 mph9.7 kmh 30.14 in1020.7 mb 0.00 in0.0 mm 0.00 in0.0 mm 0.01 in0.3 mm
09:08 AM 62.0°F16.7°C 61.1°F16.2°C 97% 3.3 mph SW5.3 kmh SW 6.0 mph9.7 kmh 30.14 in1020.7 mb 0.00 in0.0 mm 0.00 in0.0 mm 0.01 in0.3 mm
09:13 AM 62.4°F16.9°C 61.2°F16.2°C 96% 2.9 mph SW4.7 kmh SW 6.0 mph9.7 kmh 30.13 in1020.3 mb 0.00 in0.0 mm 0.00 in0.0 mm 0.01 in0.3 mm
09:18 AM 62.8°F17.1°C 61.3°F16.3°C 95% 2.5 mph SW4.0 kmh SW 6.0 mph9.7 kmh 30.13 in1020.3 mb 0.00 in0.0 mm 0.00 in0.0 mm 0.01 in0.3 mm
09:23 AM 63.3°F17.4°C 61.8°F16.6°C 95% 1.8 mph SW2.9 kmh SW 6.0 mph9.7 kmh 30.14 in1020.7 mb 0.00 in0.0 mm 0.00 in0.0 mm 0.01 in0.3 mm
09:28 AM 63.7°F17.6°C 61.6°F16.4°C 93% 2.6 mph SW4.2 kmh SW 7.0 mph11.3 kmh 30.14 in1020.7 mb 0.00 in0.0 mm 0.00 in0.0 mm 0.01 in0.3 mm
09:33 AM 64.2°F17.9°C 61.8°F16.6°C 92% 3.0 mph SW4.8 kmh SW 7.0 mph11.3 kmh 30.14 in1020.7 mb 0.00 in0.0 mm 0.00 in0.0 mm 0.01 in0.3 mm
09:38 AM 64.7°F18.2°C 62.0°F16.7°C 91% 2.3 mph WSW3.7 kmh WSW 7.0 mph11.3 kmh 30.14 in1020.7 mb 0.00 in0.0 mm 0.00 in0.0 mm 0.01 in0.3 mm
09:43 AM 65.1°F18.4°C 61.8°F16.6°C 89% 4.7 mph SW7.6 kmh SW 10.0 mph16.1 kmh 30.14 in1020.7 mb 0.00 in0.0 mm 0.00 in0.0 mm 0.01 in0.3 mm
09:48 AM 65.3°F18.5°C 62.0°F16.7°C 89% 3.1 mph SW5.0 kmh SW 10.0 mph16.1 kmh 30.13 in1020.3 mb 0.00 in0.0 mm 0.00 in0.0 mm 0.01 in0.3 mm
09:53 AM 65.6°F18.7°C 61.9°F16.6°C 88% 4.0 mph SW6.4 kmh SW 10.0 mph16.1 kmh 30.13 in1020.3 mb 0.00 in0.0 mm 0.00 in0.0 mm 0.01 in0.3 mm
09:58 AM 66.0°F18.9°C 62.0°F16.7°C 87% 2.6 mph SW4.2 kmh SW 10.0 mph16.1 kmh 30.14 in1020.7 mb 0.00 in0.0 mm 0.00 in0.0 mm 0.01 in0.3 mm
10:03 AM 66.6°F19.2°C 62.3°F16.8°C 86% 4.2 mph SW6.8 kmh SW 10.0 mph16.1 kmh 30.14 in1020.7 mb 0.00 in0.0 mm 0.00 in0.0 mm 0.01 in0.3 mm
10:08 AM 66.9°F19.4°C 62.3°F16.8°C 85% 3.2 mph SW5.1 kmh SW 10.0 mph16.1 kmh 30.13 in1020.3 mb 0.00 in0.0 mm 0.00 in0.0 mm 0.01 in0.3 mm
10:13 AM 67.2°F19.6°C 61.2°F16.2°C 81% 6.9 mph SSW11.1 kmh SSW 14.0 mph22.5 kmh 30.14 in1020.7 mb 0.00 in0.0 mm 0.00 in0.0 mm 0.01 in0.3 mm
10:18 AM 67.7°F19.8°C 61.4°F16.3°C 80% 3.8 mph SW6.1 kmh SW 14.0 mph22.5 kmh 30.14 in1020.7 mb 0.00 in0.0 mm 0.00 in0.0 mm 0.01 in0.3 mm
10:23 AM 67.9°F19.9°C 60.9°F16.1°C 78% 8.4 mph SW13.5 kmh SW 14.0 mph22.5 kmh 30.13 in1020.3 mb 0.00 in0.0 mm 0.00 in0.0 mm 0.01 in0.3 mm
10:28 AM 68.2°F20.1°C 61.5°F16.4°C 79% 5.6 mph SW9.0 kmh SW 14.0 mph22.5 kmh 30.13 in1020.3 mb 0.00 in0.0 mm 0.00 in0.0 mm 0.01 in0.3 mm
10:33 AM 68.8°F20.4°C 61.8°F16.6°C 78% 3.6 mph SSW5.8 kmh SSW 14.0 mph22.5 kmh 30.14 in1020.7 mb 0.00 in0.0 mm 0.00 in0.0 mm 0.01 in0.3 mm
10:38 AM 69.0°F20.6°C 60.7°F15.9°C 75% 7.6 mph SSW12.2 kmh SSW 14.0 mph22.5 kmh 30.14 in1020.7 mb 0.00 in0.0 mm 0.00 in0.0 mm 0.01 in0.3 mm
10:43 AM 69.4°F20.8°C 60.8°F16.0°C 74% 6.9 mph SSW11.1 kmh SSW 13.0 mph20.9 kmh 30.14 in1020.7 mb 0.00 in0.0 mm 0.00 in0.0 mm 0.01 in0.3 mm
10:48 AM 69.7°F20.9°C 60.3°F15.7°C 72% 6.5 mph SW10.5 kmh SW 15.0 mph24.1 kmh 30.14 in1020.7 mb 0.00 in0.0 mm 0.00 in0.0 mm 0.01 in0.3 mm
10:53 AM 69.9°F21.1°C 60.1°F15.6°C 71% 6.3 mph SW10.1 kmh SW 15.0 mph24.1 kmh 30.14 in1020.7 mb 0.00 in0.0 mm 0.00 in0.0 mm 0.01 in0.3 mm
10:57 AM 70.3°F21.3°C 60.4°F15.8°C 71% 6.4 mph SW10.3 kmh SW 15.0 mph24.1 kmh 30.14 in1020.7 mb 0.00 in0.0 mm 0.00 in0.0 mm 0.01 in0.3 mm
11:02 AM 71.1°F21.7°C 61.0°F16.1°C 70% 4.1 mph SW6.6 kmh SW 15.0 mph24.1 kmh 30.14 in1020.7 mb 0.00 in0.0 mm 0.00 in0.0 mm 0.01 in0.3 mm
11:07 AM 71.4°F21.9°C 60.9°F16.1°C 69% 3.4 mph SW5.5 kmh SW 15.0 mph24.1 kmh 30.14 in1020.7 mb 0.00 in0.0 mm 0.00 in0.0 mm 0.01 in0.3 mm
11:12 AM 72.0°F22.2°C 60.2°F15.7°C 66% 5.1 mph SW8.2 kmh SW 12.0 mph19.3 kmh 30.14 in1020.7 mb 0.00 in0.0 mm 0.00 in0.0 mm 0.01 in0.3 mm
11:17 AM 72.6°F22.6°C 59.9°F15.5°C 64% 4.8 mph SW7.7 kmh SW 11.0 mph17.7 kmh 30.14 in1020.7 mb 0.00 in0.0 mm 0.00 in0.0 mm 0.01 in0.3 mm
11:22 AM 72.6°F22.6°C 59.0°F15.0°C 62% 9.6 mph SSW15.4 kmh SSW 16.0 mph25.7 kmh 30.14 in1020.7 mb 0.00 in0.0 mm 0.00 in0.0 mm 0.01 in0.3 mm
11:27 AM 72.4°F22.4°C 59.3°F15.2°C 63% 10.7 mph SW17.2 kmh SW 18.0 mph29.0 kmh 30.13 in1020.3 mb 0.00 in0.0 mm 0.00 in0.0 mm 0.01 in0.3 mm
11:32 AM 72.7°F22.6°C 59.1°F15.1°C 62% 8.7 mph SW14.0 kmh SW 18.0 mph29.0 kmh 30.13 in1020.3 mb 0.00 in0.0 mm 0.00 in0.0 mm 0.01 in0.3 mm
11:37 AM 72.8°F22.7°C 59.7°F15.4°C 63% 5.3 mph SW8.5 kmh SW 20.0 mph32.2 kmh 30.13 in1020.3 mb 0.00 in0.0 mm 0.00 in0.0 mm 0.01 in0.3 mm
11:42 AM 73.5°F23.1°C 59.9°F15.5°C 62% 3.8 mph SW6.1 kmh SW 20.0 mph32.2 kmh 30.13 in1020.3 mb 0.00 in0.0 mm 0.00 in0.0 mm 0.01 in0.3 mm
11:47 AM 74.1°F23.4°C 59.0°F15.0°C 59% 4.5 mph SW7.2 kmh SW 20.0 mph32.2 kmh 30.13 in1020.3 mb 0.00 in0.0 mm 0.00 in0.0 mm 0.01 in0.3 mm
11:52 AM 74.1°F23.4°C 57.9°F14.4°C 57% 10.4 mph SW16.7 kmh SW 20.0 mph32.2 kmh 30.13 in1020.3 mb 0.00 in0.0 mm 0.00 in0.0 mm 0.01 in0.3 mm
11:57 AM 74.1°F23.4°C 59.0°F15.0°C 59% 6.4 mph SW10.3 kmh SW 20.0 mph32.2 kmh 30.12 in1020.0 mb 0.00 in0.0 mm 0.00 in0.0 mm 0.01 in0.3 mm
12:02 PM 74.1°F23.4°C 58.6°F14.8°C 58% 10.5 mph SW16.9 kmh SW 20.0 mph32.2 kmh 30.12 in1020.0 mb 0.00 in0.0 mm 0.00 in0.0 mm 0.01 in0.3 mm
12:07 PM 74.2°F23.4°C 58.7°F14.8°C 58% 8.6 mph SW13.8 kmh SW 20.0 mph32.2 kmh 30.12 in1020.0 mb 0.00 in0.0 mm 0.00 in0.0 mm 0.01 in0.3 mm
12:12 PM 74.5°F23.6°C 58.4°F14.7°C 57% 11.8 mph SW19.0 kmh SW 18.0 mph29.0 kmh 30.12 in1020.0 mb 0.00 in0.0 mm 0.00 in0.0 mm 0.01 in0.3 mm
12:17 PM 74.8°F23.8°C 59.2°F15.1°C 58% 8.2 mph SW13.2 kmh SW 18.0 mph29.0 kmh 30.12 in1020.0 mb 0.00 in0.0 mm 0.00 in0.0 mm 0.01 in0.3 mm
12:22 PM 75.0°F23.9°C 58.9°F14.9°C 57% 8.2 mph SW13.2 kmh SW 18.0 mph29.0 kmh 30.12 in1020.0 mb 0.00 in0.0 mm 0.00 in0.0 mm 0.01 in0.3 mm
12:27 PM 74.8°F23.8°C 59.2°F15.1°C 58% 7.9 mph SW12.7 kmh SW 18.0 mph29.0 kmh 30.12 in1020.0 mb 0.00 in0.0 mm 0.00 in0.0 mm 0.01 in0.3 mm
12:32 PM 75.0°F23.9°C 59.2°F15.1°C 58% 8.6 mph SW13.8 kmh SW 18.0 mph29.0 kmh 30.11 in1019.6 mb 0.00 in0.0 mm 0.00 in0.0 mm 0.01 in0.3 mm
12:37 PM 75.1°F23.9°C 58.8°F14.9°C 57% 9.0 mph SW14.5 kmh SW 17.0 mph27.4 kmh 30.12 in1020.0 mb 0.00 in0.0 mm 0.00 in0.0 mm 0.01 in0.3 mm
12:42 PM 75.2°F24.0°C 59.1°F15.1°C 57% 9.6 mph SW15.4 kmh SW 17.0 mph27.4 kmh 30.11 in1019.6 mb 0.00 in0.0 mm 0.00 in0.0 mm 0.01 in0.3 mm
12:47 PM 75.5°F24.2°C 58.9°F14.9°C 56% 9.1 mph SW14.6 kmh SW 16.0 mph25.7 kmh 30.11 in1019.6 mb 0.00 in0.0 mm 0.00 in0.0 mm 0.01 in0.3 mm
12:52 PM 75.8°F24.3°C 59.2°F15.1°C 56% 8.2 mph SW13.2 kmh SW 16.0 mph25.7 kmh 30.11 in1019.6 mb 0.00 in0.0 mm 0.00 in0.0 mm 0.01 in0.3 mm
12:57 PM 75.9°F24.4°C 59.3°F15.2°C 56% 6.9 mph WSW11.1 kmh WSW 16.0 mph25.7 kmh 30.11 in1019.6 mb 0.00 in0.0 mm 0.00 in0.0 mm 0.01 in0.3 mm
01:02 PM 76.2°F24.6°C 58.5°F14.7°C 54% 8.1 mph SW13.0 kmh SW 17.0 mph27.4 kmh 30.11 in1019.6 mb 0.00 in0.0 mm 0.00 in0.0 mm 0.01 in0.3 mm
01:07 PM 76.4°F24.7°C 58.7°F14.8°C 54% 6.1 mph SW9.8 kmh SW 18.0 mph29.0 kmh 30.10 in1019.3 mb 0.00 in0.0 mm 0.00 in0.0 mm 0.01 in0.3 mm
01:12 PM 76.4°F24.7°C 59.0°F15.0°C 55% 5.4 mph SSW8.7 kmh SSW 18.0 mph29.0 kmh 30.10 in1019.3 mb 0.00 in0.0 mm 0.00 in0.0 mm 0.01 in0.3 mm
01:17 PM 76.7°F24.8°C 58.8°F14.9°C 54% 9.7 mph SW15.6 kmh SW 18.0 mph29.0 kmh 30.10 in1019.3 mb 0.00 in0.0 mm 0.00 in0.0 mm 0.01 in0.3 mm
01:22 PM 76.7°F24.8°C 59.0°F15.0°C 54% 6.2 mph SW10.0 kmh SW 18.0 mph29.0 kmh 30.10 in1019.3 mb 0.00 in0.0 mm 0.00 in0.0 mm 0.01 in0.3 mm
01:27 PM 76.8°F24.9°C 58.5°F14.7°C 53% 9.2 mph SW14.8 kmh SW 18.0 mph29.0 kmh 30.10 in1019.3 mb 0.00 in0.0 mm 0.00 in0.0 mm 0.01 in0.3 mm
01:32 PM 77.0°F25.0°C 59.2°F15.1°C 54% 6.0 mph SSW9.7 kmh SSW 18.0 mph29.0 kmh 30.10 in1019.3 mb 0.00 in0.0 mm 0.00 in0.0 mm 0.01 in0.3 mm
01:37 PM 77.2°F25.1°C 59.4°F15.2°C 54% 5.1 mph SSW8.2 kmh SSW 18.0 mph29.0 kmh 30.09 in1019.0 mb 0.00 in0.0 mm 0.00 in0.0 mm 0.01 in0.3 mm
01:42 PM 77.3°F25.2°C 58.8°F14.9°C 53% 5.1 mph SSW8.2 kmh SSW 18.0 mph29.0 kmh 30.09 in1019.0 mb 0.00 in0.0 mm 0.00 in0.0 mm 0.01 in0.3 mm
01:47 PM 77.5°F25.3°C 59.2°F15.1°C 53% 5.0 mph SSW8.0 kmh SSW 13.0 mph20.9 kmh 30.09 in1019.0 mb 0.00 in0.0 mm 0.00 in0.0 mm 0.01 in0.3 mm
01:52 PM 77.8°F25.4°C 59.4°F15.2°C 53% 6.2 mph SW10.0 kmh SW 14.0 mph22.5 kmh 30.09 in1019.0 mb 0.00 in0.0 mm 0.00 in0.0 mm 0.01 in0.3 mm
01:57 PM 78.1°F25.6°C 59.7°F15.4°C 53% 3.7 mph WSW6.0 kmh WSW 14.0 mph22.5 kmh 30.09 in1019.0 mb 0.00 in0.0 mm 0.00 in0.0 mm 0.01 in0.3 mm
02:02 PM 78.5°F25.8°C 59.5°F15.3°C 52% 5.2 mph SW8.4 kmh SW 14.0 mph22.5 kmh 30.09 in1019.0 mb 0.00 in0.0 mm 0.00 in0.0 mm 0.01 in0.3 mm
02:07 PM 78.3°F25.7°C 59.4°F15.2°C 52% 4.9 mph SW7.9 kmh SW 14.0 mph22.5 kmh 30.09 in1019.0 mb 0.00 in0.0 mm 0.00 in0.0 mm 0.01 in0.3 mm
02:12 PM 78.3°F25.7°C 58.7°F14.8°C 51% 8.1 mph SW13.0 kmh SW 14.0 mph22.5 kmh 30.09 in1019.0 mb 0.00 in0.0 mm 0.00 in0.0 mm 0.01 in0.3 mm
02:17 PM 78.3°F25.7°C 59.4°F15.2°C 52% 6.7 mph SW10.8 kmh SW 14.0 mph22.5 kmh 30.08 in1018.6 mb 0.00 in0.0 mm 0.00 in0.0 mm 0.01 in0.3 mm
02:22 PM 78.6°F25.9°C 59.1°F15.1°C 51% 5.9 mph WSW9.5 kmh WSW 14.0 mph22.5 kmh 30.08 in1018.6 mb 0.00 in0.0 mm 0.00 in0.0 mm 0.01 in0.3 mm
02:27 PM 78.6°F25.9°C 59.1°F15.1°C 51% 7.0 mph S11.3 kmh S 15.0 mph24.1 kmh 30.08 in1018.6 mb 0.00 in0.0 mm 0.00 in0.0 mm 0.01 in0.3 mm
02:32 PM 78.6°F25.9°C 59.6°F15.3°C 52% 7.0 mph SW11.3 kmh SW 18.0 mph29.0 kmh 30.08 in1018.6 mb 0.00 in0.0 mm 0.00 in0.0 mm 0.01 in0.3 mm
02:37 PM 78.4°F25.8°C 58.8°F14.9°C 51% 7.8 mph SW12.6 kmh SW 18.0 mph29.0 kmh 30.08 in1018.6 mb 0.00 in0.0 mm 0.00 in0.0 mm 0.01 in0.3 mm
02:42 PM 79.0°F26.1°C 58.8°F14.9°C 50% 6.0 mph SW9.7 kmh SW 18.0 mph29.0 kmh 30.08 in1018.6 mb 0.00 in0.0 mm 0.00 in0.0 mm 0.01 in0.3 mm
02:47 PM 78.9°F26.1°C 58.2°F14.6°C 49% 10.3 mph SW16.6 kmh SW 18.0 mph29.0 kmh 30.08 in1018.6 mb 0.00 in0.0 mm 0.00 in0.0 mm 0.01 in0.3 mm
02:52 PM 78.8°F26.0°C 58.1°F14.5°C 49% 8.9 mph SW14.3 kmh SW 20.0 mph32.2 kmh 30.07 in1018.3 mb 0.00 in0.0 mm 0.00 in0.0 mm 0.01 in0.3 mm
02:57 PM 78.9°F26.1°C 58.2°F14.6°C 49% 8.5 mph SW13.7 kmh SW 20.0 mph32.2 kmh 30.07 in1018.3 mb 0.00 in0.0 mm 0.00 in0.0 mm 0.01 in0.3 mm
03:02 PM 78.9°F26.1°C 58.2°F14.6°C 49% 9.0 mph SW14.5 kmh SW 20.0 mph32.2 kmh 30.07 in1018.3 mb 0.00 in0.0 mm 0.00 in0.0 mm 0.01 in0.3 mm
03:07 PM 78.8°F26.0°C 58.1°F14.5°C 49% 8.5 mph SW13.7 kmh SW 19.0 mph30.6 kmh 30.07 in1018.3 mb 0.00 in0.0 mm 0.00 in0.0 mm 0.01 in0.3 mm
03:12 PM 78.8°F26.0°C 58.1°F14.5°C 49% 9.0 mph SW14.5 kmh SW 16.0 mph25.7 kmh 30.07 in1018.3 mb 0.00 in0.0 mm 0.00 in0.0 mm 0.01 in0.3 mm
03:17 PM 79.2°F26.2°C 57.8°F14.3°C 48% 6.5 mph SW10.5 kmh SW 16.0 mph25.7 kmh 30.07 in1018.3 mb 0.00 in0.0 mm 0.00 in0.0 mm 0.01 in0.3 mm
03:22 PM 78.8°F26.0°C 57.5°F14.2°C 48% 11.2 mph SW18.0 kmh SW 20.0 mph32.2 kmh 30.07 in1018.3 mb 0.00 in0.0 mm 0.00 in0.0 mm 0.01 in0.3 mm
03:27 PM 78.9°F26.1°C 57.6°F14.2°C 48% 5.9 mph SSW9.5 kmh SSW 20.0 mph32.2 kmh 30.07 in1018.3 mb 0.00 in0.0 mm 0.00 in0.0 mm 0.01 in0.3 mm
03:32 PM 78.9°F26.1°C 57.6°F14.2°C 48% 8.0 mph SW12.9 kmh SW 20.0 mph32.2 kmh 30.07 in1018.3 mb 0.00 in0.0 mm 0.00 in0.0 mm 0.01 in0.3 mm
03:38 PM 79.4°F26.3°C 58.1°F14.5°C 48% 4.5 mph SSW7.2 kmh SSW 20.0 mph32.2 kmh 30.07 in1018.3 mb 0.00 in0.0 mm 0.00 in0.0 mm 0.01 in0.3 mm
03:43 PM 79.6°F26.4°C 58.3°F14.6°C 48% 5.6 mph SW9.0 kmh SW 16.0 mph25.7 kmh 30.07 in1018.3 mb 0.00 in0.0 mm 0.00 in0.0 mm 0.01 in0.3 mm
03:48 PM 79.4°F26.3°C 58.1°F14.5°C 48% 6.0 mph SW9.7 kmh SW 15.0 mph24.1 kmh 30.07 in1018.3 mb 0.00 in0.0 mm 0.00 in0.0 mm 0.01 in0.3 mm
03:51 PM 79.2°F26.2°C 57.9°F14.4°C 48% 6.9 mph SW11.1 kmh SW 15.0 mph24.1 kmh 30.07 in1018.3 mb 0.00 in0.0 mm 0.00 in0.0 mm 0.01 in0.3 mm
03:57 PM 79.3°F26.3°C 57.3°F14.1°C 47% 7.8 mph SW12.6 kmh SW 15.0 mph24.1 kmh 30.07 in1018.3 mb 0.00 in0.0 mm 0.00 in0.0 mm 0.01 in0.3 mm
04:02 PM 79.3°F26.3°C 57.3°F14.1°C 47% 5.7 mph SSW9.2 kmh SSW 16.0 mph25.7 kmh 30.06 in1017.9 mb 0.00 in0.0 mm 0.00 in0.0 mm 0.01 in0.3 mm
04:07 PM 79.4°F26.3°C 57.5°F14.2°C 47% 7.2 mph SSW11.6 kmh SSW 16.0 mph25.7 kmh 30.06 in1017.9 mb 0.00 in0.0 mm 0.00 in0.0 mm 0.01 in0.3 mm
04:12 PM 79.4°F26.3°C 57.5°F14.2°C 47% 5.1 mph SW8.2 kmh SW 16.0 mph25.7 kmh 30.06 in1017.9 mb 0.00 in0.0 mm 0.00 in0.0 mm 0.01 in0.3 mm
04:17 PM 79.6°F26.4°C 57.7°F14.3°C 47% 3.2 mph SW5.1 kmh SW 13.0 mph20.9 kmh 30.06 in1017.9 mb 0.00 in0.0 mm 0.00 in0.0 mm 0.01 in0.3 mm
04:22 PM 79.6°F26.4°C 57.0°F13.9°C 46% 4.8 mph S7.7 kmh S 14.0 mph22.5 kmh 30.06 in1017.9 mb 0.00 in0.0 mm 0.00 in0.0 mm 0.01 in0.3 mm
04:27 PM 79.8°F26.6°C 57.2°F14.0°C 46% 3.1 mph S5.0 kmh S 14.0 mph22.5 kmh 30.06 in1017.9 mb 0.00 in0.0 mm 0.00 in0.0 mm 0.01 in0.3 mm
04:32 PM 79.6°F26.4°C 57.0°F13.9°C 46% 4.9 mph SW7.9 kmh SW 14.0 mph22.5 kmh 30.06 in1017.9 mb 0.00 in0.0 mm 0.00 in0.0 mm 0.01 in0.3 mm
04:37 PM 79.3°F26.3°C 56.8°F13.8°C 46% 6.1 mph SW9.8 kmh SW 14.0 mph22.5 kmh 30.06 in1017.9 mb 0.00 in0.0 mm 0.00 in0.0 mm 0.01 in0.3 mm
04:42 PM 78.9°F26.1°C 56.4°F13.6°C 46% 5.4 mph SSW8.7 kmh SSW 14.0 mph22.5 kmh 30.06 in1017.9 mb 0.00 in0.0 mm 0.00 in0.0 mm 0.01 in0.3 mm
04:47 PM 78.6°F25.9°C 56.1°F13.4°C 46% 3.0 mph SW4.8 kmh SW 14.0 mph22.5 kmh 30.06 in1017.9 mb 0.00 in0.0 mm 0.00 in0.0 mm 0.01 in0.3 mm
04:52 PM 78.3°F25.7°C 55.8°F13.2°C 46% 5.6 mph SW9.0 kmh SW 14.0 mph22.5 kmh 30.06 in1017.9 mb 0.00 in0.0 mm 0.00 in0.0 mm 0.01 in0.3 mm
04:57 PM 78.3°F25.7°C 55.8°F13.2°C 46% 5.2 mph SSW8.4 kmh SSW 12.0 mph19.3 kmh 30.06 in1017.9 mb 0.00 in0.0 mm 0.00 in0.0 mm 0.01 in0.3 mm
05:02 PM 78.6°F25.9°C 56.1°F13.4°C 46% 4.2 mph SSW6.8 kmh SSW 12.0 mph19.3 kmh 30.06 in1017.9 mb 0.00 in0.0 mm 0.00 in0.0 mm 0.01 in0.3 mm
05:07 PM 79.1°F26.2°C 56.6°F13.7°C 46% 3.1 mph SW5.0 kmh SW 12.0 mph19.3 kmh 30.06 in1017.9 mb 0.00 in0.0 mm 0.00 in0.0 mm 0.01 in0.3 mm
05:12 PM 79.2°F26.2°C 56.7°F13.7°C 46% 3.5 mph SSW5.6 kmh SSW 12.0 mph19.3 kmh 30.06 in1017.9 mb 0.00 in0.0 mm 0.00 in0.0 mm 0.01 in0.3 mm
05:17 PM 79.2°F26.2°C 56.7°F13.7°C 46% 3.6 mph S5.8 kmh S 11.0 mph17.7 kmh 30.06 in1017.9 mb 0.00 in0.0 mm 0.00 in0.0 mm 0.01 in0.3 mm
05:22 PM 79.0°F26.1°C 55.9°F13.3°C 45% 6.7 mph SSW10.8 kmh SSW 12.0 mph19.3 kmh 30.05 in1017.6 mb 0.00 in0.0 mm 0.00 in0.0 mm 0.01 in0.3 mm
05:27 PM 78.8°F26.0°C 55.7°F13.2°C 45% 5.0 mph SSW8.0 kmh SSW 13.0 mph20.9 kmh 30.05 in1017.6 mb 0.00 in0.0 mm 0.00 in0.0 mm 0.01 in0.3 mm
05:32 PM 78.7°F25.9°C 55.6°F13.1°C 45% 5.5 mph SW8.9 kmh SW 13.0 mph20.9 kmh 30.05 in1017.6 mb 0.00 in0.0 mm 0.00 in0.0 mm 0.01 in0.3 mm
05:37 PM 78.6°F25.9°C 56.1°F13.4°C 46% 2.3 mph S3.7 kmh S 13.0 mph20.9 kmh 30.05 in1017.6 mb 0.00 in0.0 mm 0.00 in0.0 mm 0.01 in0.3 mm
05:42 PM 78.2°F25.7°C 55.1°F12.8°C 45% 6.7 mph S10.8 kmh S 13.0 mph20.9 kmh 30.05 in1017.6 mb 0.00 in0.0 mm 0.00 in0.0 mm 0.01 in0.3 mm
05:47 PM 78.0°F25.6°C 55.6°F13.1°C 46% 4.6 mph SW7.4 kmh SW 13.0 mph20.9 kmh 30.05 in1017.6 mb 0.00 in0.0 mm 0.00 in0.0 mm 0.01 in0.3 mm
05:52 PM 77.7°F25.4°C 55.3°F12.9°C 46% 3.5 mph SSW5.6 kmh SSW 13.0 mph20.9 kmh 30.06 in1017.9 mb 0.00 in0.0 mm 0.00 in0.0 mm 0.01 in0.3 mm
05:57 PM 77.3°F25.2°C 54.9°F12.7°C 46% 4.3 mph SSW6.9 kmh SSW 13.0 mph20.9 kmh 30.06 in1017.9 mb 0.00 in0.0 mm 0.00 in0.0 mm 0.01 in0.3 mm
06:02 PM 76.9°F24.9°C 55.2°F12.9°C 47% 4.5 mph SW7.2 kmh SW 9.0 mph14.5 kmh 30.06 in1017.9 mb 0.00 in0.0 mm 0.00 in0.0 mm 0.01 in0.3 mm
06:07 PM 76.5°F24.7°C 55.3°F12.9°C 48% 2.5 mph SSW4.0 kmh SSW 9.0 mph14.5 kmh 30.06 in1017.9 mb 0.00 in0.0 mm 0.00 in0.0 mm 0.01 in0.3 mm
06:12 PM 76.1°F24.5°C 55.0°F12.8°C 48% 3.7 mph SSW6.0 kmh SSW 9.0 mph14.5 kmh 30.06 in1017.9 mb 0.00 in0.0 mm 0.00 in0.0 mm 0.01 in0.3 mm
06:17 PM 75.7°F24.3°C 55.2°F12.9°C 49% 2.5 mph S4.0 kmh S 9.0 mph14.5 kmh 30.06 in1017.9 mb 0.00 in0.0 mm 0.00 in0.0 mm 0.01 in0.3 mm
06:22 PM 75.3°F24.1°C 54.8°F12.7°C 49% 2.7 mph SSW4.3 kmh SSW 6.0 mph9.7 kmh 30.06 in1017.9 mb 0.00 in0.0 mm 0.00 in0.0 mm 0.01 in0.3 mm
06:27 PM 75.0°F23.9°C 54.5°F12.5°C 49% 4.8 mph S7.7 kmh S 9.0 mph14.5 kmh 30.06 in1017.9 mb 0.00 in0.0 mm 0.00 in0.0 mm 0.01 in0.3 mm
06:32 PM 74.8°F23.8°C 54.4°F12.4°C 49% 2.9 mph SSW4.7 kmh SSW 9.0 mph14.5 kmh 30.06 in1017.9 mb 0.00 in0.0 mm 0.00 in0.0 mm 0.01 in0.3 mm
06:37 PM 74.4°F23.6°C 54.5°F12.5°C 50% 3.1 mph SSW5.0 kmh SSW 9.0 mph14.5 kmh 30.06 in1017.9 mb 0.00 in0.0 mm 0.00 in0.0 mm 0.01 in0.3 mm
06:42 PM 74.1°F23.4°C 54.3°F12.4°C 50% 2.3 mph S3.7 kmh S 9.0 mph14.5 kmh 30.06 in1017.9 mb 0.00 in0.0 mm 0.00 in0.0 mm 0.01 in0.3 mm
06:47 PM 73.8°F23.2°C 54.5°F12.5°C 51% 1.8 mph S2.9 kmh S 7.0 mph11.3 kmh 30.06 in1017.9 mb 0.00 in0.0 mm 0.00 in0.0 mm 0.01 in0.3 mm
06:52 PM 73.5°F23.1°C 54.3°F12.4°C 51% 1.8 mph S2.9 kmh S 6.0 mph9.7 kmh 30.06 in1017.9 mb 0.00 in0.0 mm 0.00 in0.0 mm 0.01 in0.3 mm
06:57 PM 73.1°F22.8°C 54.4°F12.4°C 52% 1.4 mph S2.3 kmh S 5.0 mph8.0 kmh 30.06 in1017.9 mb 0.00 in0.0 mm 0.00 in0.0 mm 0.01 in0.3 mm
07:02 PM 72.8°F22.7°C 54.1°F12.3°C 52% 2.9 mph SSW4.7 kmh SSW 6.0 mph9.7 kmh 30.06 in1017.9 mb 0.00 in0.0 mm 0.00 in0.0 mm 0.01 in0.3 mm
07:07 PM 72.6°F22.6°C 54.5°F12.5°C 53% 2.9 mph S4.7 kmh S 7.0 mph11.3 kmh 30.06 in1017.9 mb 0.00 in0.0 mm 0.00 in0.0 mm 0.01 in0.3 mm
07:12 PM 72.3°F22.4°C 54.3°F12.4°C 53% 3.2 mph S5.1 kmh S 8.0 mph12.9 kmh 30.06 in1017.9 mb 0.00 in0.0 mm 0.00 in0.0 mm 0.01 in0.3 mm
07:17 PM 72.1°F22.3°C 54.7°F12.6°C 54% 3.0 mph SSW4.8 kmh SSW 8.0 mph12.9 kmh 30.06 in1017.9 mb 0.00 in0.0 mm 0.00 in0.0 mm 0.01 in0.3 mm
07:22 PM 71.8°F22.1°C 54.3°F12.4°C 54% 3.2 mph SSW5.1 kmh SSW 8.0 mph12.9 kmh 30.07 in1018.3 mb 0.00 in0.0 mm 0.00 in0.0 mm 0.01 in0.3 mm
07:27 PM 71.5°F21.9°C 54.5°F12.5°C 55% 3.1 mph SSW5.0 kmh SSW 8.0 mph12.9 kmh 30.07 in1018.3 mb 0.00 in0.0 mm 0.00 in0.0 mm 0.01 in0.3 mm
07:32 PM 71.2°F21.8°C 54.2°F12.3°C 55% 2.3 mph SSW3.7 kmh SSW 6.0 mph9.7 kmh 30.07 in1018.3 mb 0.00 in0.0 mm 0.00 in0.0 mm 0.01 in0.3 mm
07:37 PM 71.1°F21.7°C 54.1°F12.3°C 55% 2.3 mph SSW3.7 kmh SSW 6.0 mph9.7 kmh 30.07 in1018.3 mb 0.00 in0.0 mm 0.00 in0.0 mm 0.01 in0.3 mm
07:42 PM 70.7°F21.5°C 54.2°F12.3°C 56% 1.7 mph SW2.7 kmh SW 6.0 mph9.7 kmh 30.07 in1018.3 mb 0.00 in0.0 mm 0.00 in0.0 mm 0.01 in0.3 mm
07:47 PM 70.4°F21.3°C 54.4°F12.4°C 57% 2.1 mph SW3.4 kmh SW 6.0 mph9.7 kmh 30.07 in1018.3 mb 0.00 in0.0 mm 0.00 in0.0 mm 0.01 in0.3 mm
07:52 PM 70.2°F21.2°C 54.2°F12.3°C 57% 2.0 mph SSW3.2 kmh SSW 6.0 mph9.7 kmh 30.08 in1018.6 mb 0.00 in0.0 mm 0.00 in0.0 mm 0.01 in0.3 mm
07:57 PM 70.0°F21.1°C 54.5°F12.5°C 58% 2.1 mph SSW3.4 kmh SSW 5.0 mph8.0 kmh 30.08 in1018.6 mb 0.00 in0.0 mm 0.00 in0.0 mm 0.01 in0.3 mm
08:02 PM 69.8°F21.0°C 54.4°F12.4°C 58% 2.7 mph S4.3 kmh S 6.0 mph9.7 kmh 30.08 in1018.6 mb 0.00 in0.0 mm 0.00 in0.0 mm 0.01 in0.3 mm
08:07 PM 69.6°F20.9°C 54.6°F12.6°C 59% 3.8 mph SSW6.1 kmh SSW 7.0 mph11.3 kmh 30.08 in1018.6 mb 0.00 in0.0 mm 0.00 in0.0 mm 0.01 in0.3 mm
08:12 PM 69.4°F20.8°C 55.1°F12.8°C 60% 3.5 mph SSW5.6 kmh SSW 7.0 mph11.3 kmh 30.07 in1018.3 mb 0.00 in0.0 mm 0.00 in0.0 mm 0.01 in0.3 mm
08:17 PM 69.2°F20.7°C 54.9°F12.7°C 60% 3.6 mph SSW5.8 kmh SSW 8.0 mph12.9 kmh 30.08 in1018.6 mb 0.00 in0.0 mm 0.00 in0.0 mm 0.01 in0.3 mm
08:22 PM 69.0°F20.6°C 55.2°F12.9°C 61% 3.3 mph SSW5.3 kmh SSW 8.0 mph12.9 kmh 30.08 in1018.6 mb 0.00 in0.0 mm 0.00 in0.0 mm 0.01 in0.3 mm
08:27 PM 68.9°F20.5°C 55.5°F13.1°C 62% 2.9 mph SSW4.7 kmh SSW 8.0 mph12.9 kmh 30.08 in1018.6 mb 0.00 in0.0 mm 0.00 in0.0 mm 0.01 in0.3 mm
08:32 PM 68.7°F20.4°C 55.8°F13.2°C 63% 3.7 mph SSW6.0 kmh SSW 8.0 mph12.9 kmh 30.08 in1018.6 mb 0.00 in0.0 mm 0.00 in0.0 mm 0.01 in0.3 mm
08:37 PM 68.6°F20.3°C 55.7°F13.2°C 63% 3.3 mph SW5.3 kmh SW 8.0 mph12.9 kmh 30.08 in1018.6 mb 0.00 in0.0 mm 0.00 in0.0 mm 0.01 in0.3 mm
08:42 PM 68.5°F20.3°C 56.0°F13.3°C 64% 3.7 mph SW6.0 kmh SW 8.0 mph12.9 kmh 30.08 in1018.6 mb 0.00 in0.0 mm 0.00 in0.0 mm 0.01 in0.3 mm
08:47 PM 68.4°F20.2°C 55.9°F13.3°C 64% 3.6 mph SW5.8 kmh SW 8.0 mph12.9 kmh 30.08 in1018.6 mb 0.00 in0.0 mm 0.00 in0.0 mm 0.01 in0.3 mm
08:52 PM 68.2°F20.1°C 56.2°F13.4°C 65% 3.3 mph SSW5.3 kmh SSW 8.0 mph12.9 kmh 30.08 in1018.6 mb 0.00 in0.0 mm 0.00 in0.0 mm 0.01 in0.3 mm
08:57 PM 68.0°F20.0°C 56.4°F13.6°C 66% 2.8 mph SSW4.5 kmh SSW 7.0 mph11.3 kmh 30.08 in1018.6 mb 0.00 in0.0 mm 0.00 in0.0 mm 0.01 in0.3 mm
09:02 PM 67.8°F19.9°C 56.2°F13.4°C 66% 2.6 mph SW4.2 kmh SW 7.0 mph11.3 kmh 30.09 in1019.0 mb 0.00 in0.0 mm 0.00 in0.0 mm 0.01 in0.3 mm
09:07 PM 67.7°F19.8°C 56.1°F13.4°C 66% 2.4 mph SW3.9 kmh SW 6.0 mph9.7 kmh 30.09 in1019.0 mb 0.00 in0.0 mm 0.00 in0.0 mm 0.01 in0.3 mm
09:12 PM 67.6°F19.8°C 56.4°F13.6°C 67% 2.1 mph SW3.4 kmh SW 6.0 mph9.7 kmh 30.09 in1019.0 mb 0.00 in0.0 mm 0.00 in0.0 mm 0.01 in0.3 mm
09:17 PM 67.5°F19.7°C 56.3°F13.5°C 67% 2.4 mph SW3.9 kmh SW 6.0 mph9.7 kmh 30.09 in1019.0 mb 0.00 in0.0 mm 0.00 in0.0 mm 0.01 in0.3 mm
09:22 PM 67.4°F19.7°C 56.2°F13.4°C 67% 2.4 mph SW3.9 kmh SW 6.0 mph9.7 kmh 30.10 in1019.3 mb 0.00 in0.0 mm 0.00 in0.0 mm 0.01 in0.3 mm
09:27 PM 67.2°F19.6°C 56.5°F13.6°C 68% 2.2 mph SW3.5 kmh SW 6.0 mph9.7 kmh 30.10 in1019.3 mb 0.00 in0.0 mm 0.00 in0.0 mm 0.01 in0.3 mm
09:32 PM 67.0°F19.4°C 56.3°F13.5°C 68% 2.2 mph SW3.5 kmh SW 6.0 mph9.7 kmh 30.10 in1019.3 mb 0.00 in0.0 mm 0.00 in0.0 mm 0.01 in0.3 mm
09:37 PM 66.9°F19.4°C 56.2°F13.4°C 68% 2.2 mph SW3.5 kmh SW 5.0 mph8.0 kmh 30.10 in1019.3 mb 0.00 in0.0 mm 0.00 in0.0 mm 0.01 in0.3 mm
09:42 PM 66.8°F19.3°C 56.5°F13.6°C 69% 2.0 mph SW3.2 kmh SW 5.0 mph8.0 kmh 30.10 in1019.3 mb 0.00 in0.0 mm 0.00 in0.0 mm 0.01 in0.3 mm
09:47 PM 66.7°F19.3°C 56.4°F13.6°C 69% 2.5 mph SW4.0 kmh SW 5.0 mph8.0 kmh 30.10 in1019.3 mb 0.00 in0.0 mm 0.00 in0.0 mm 0.01 in0.3 mm
09:51 PM 66.5°F19.2°C 56.0°F13.3°C 69% 2.1 mph SW3.4 kmh SW 5.0 mph8.0 kmh 30.10 in1019.3 mb 0.00 in0.0 mm 0.00 in0.0 mm 0.01 in0.3 mm
09:56 PM 66.4°F19.1°C 56.3°F13.5°C 70% 1.8 mph SW2.9 kmh SW 5.0 mph8.0 kmh 30.10 in1019.3 mb 0.00 in0.0 mm 0.00 in0.0 mm 0.01 in0.3 mm
10:01 PM 66.1°F18.9°C 56.0°F13.3°C 70% 1.4 mph SW2.3 kmh SW 5.0 mph8.0 kmh 30.10 in1019.3 mb 0.00 in0.0 mm 0.00 in0.0 mm 0.01 in0.3 mm
10:06 PM 65.7°F18.7°C 56.0°F13.3°C 71% 2.1 mph SSW3.4 kmh SSW 5.0 mph8.0 kmh 30.10 in1019.3 mb 0.00 in0.0 mm 0.00 in0.0 mm 0.01 in0.3 mm
10:11 PM 65.4°F18.6°C 56.3°F13.5°C 72% 2.2 mph SW3.5 kmh SW 5.0 mph8.0 kmh 30.10 in1019.3 mb 0.00 in0.0 mm 0.00 in0.0 mm 0.01 in0.3 mm
10:16 PM 65.3°F18.5°C 56.2°F13.4°C 72% 2.1 mph SW3.4 kmh SW 5.0 mph8.0 kmh 30.10 in1019.3 mb 0.00 in0.0 mm 0.00 in0.0 mm 0.01 in0.3 mm
10:21 PM 65.2°F18.4°C 56.1°F13.4°C 72% 2.2 mph SW3.5 kmh SW 5.0 mph8.0 kmh 30.10 in1019.3 mb 0.00 in0.0 mm 0.00 in0.0 mm 0.01 in0.3 mm
10:26 PM 65.0°F18.3°C 56.3°F13.5°C 73% 1.9 mph SW3.1 kmh SW 5.0 mph8.0 kmh 30.10 in1019.3 mb 0.00 in0.0 mm 0.00 in0.0 mm 0.01 in0.3 mm
10:31 PM 64.9°F18.3°C 56.2°F13.4°C 73% 2.0 mph SW3.2 kmh SW 5.0 mph8.0 kmh 30.10 in1019.3 mb 0.00 in0.0 mm 0.00 in0.0 mm 0.01 in0.3 mm
10:36 PM 64.9°F18.3°C 56.5°F13.6°C 74% 2.8 mph SW4.5 kmh SW 5.0 mph8.0 kmh 30.10 in1019.3 mb 0.00 in0.0 mm 0.00 in0.0 mm 0.01 in0.3 mm
10:41 PM 64.8°F18.2°C 56.4°F13.6°C 74% 2.7 mph SW4.3 kmh SW 5.0 mph8.0 kmh 30.10 in1019.3 mb 0.00 in0.0 mm 0.00 in0.0 mm 0.01 in0.3 mm
10:46 PM 64.5°F18.1°C 56.2°F13.4°C 74% 2.6 mph SW4.2 kmh SW 5.0 mph8.0 kmh 30.10 in1019.3 mb 0.00 in0.0 mm 0.00 in0.0 mm 0.01 in0.3 mm
10:51 PM 64.3°F17.9°C 56.3°F13.5°C 75% 2.7 mph SW4.3 kmh SW 5.0 mph8.0 kmh 30.10 in1019.3 mb 0.00 in0.0 mm 0.00 in0.0 mm 0.01 in0.3 mm
10:56 PM 64.1°F17.8°C 56.5°F13.6°C 76% 3.0 mph SW4.8 kmh SW 5.0 mph8.0 kmh 30.10 in1019.3 mb 0.00 in0.0 mm 0.00 in0.0 mm 0.01 in0.3 mm
11:01 PM 64.0°F17.8°C 56.4°F13.6°C 76% 2.6 mph SW4.2 kmh SW 5.0 mph8.0 kmh 30.10 in1019.3 mb 0.00 in0.0 mm 0.00 in0.0 mm 0.01 in0.3 mm
11:06 PM 64.0°F17.8°C 56.7°F13.7°C 77% 2.3 mph SW3.7 kmh SW 7.0 mph11.3 kmh 30.10 in1019.3 mb 0.00 in0.0 mm 0.00 in0.0 mm 0.01 in0.3 mm
11:11 PM 64.0°F17.8°C 56.7°F13.7°C 77% 2.0 mph SW3.2 kmh SW 7.0 mph11.3 kmh 30.10 in1019.3 mb 0.00 in0.0 mm 0.00 in0.0 mm 0.01 in0.3 mm
11:16 PM 63.9°F17.7°C 56.6°F13.7°C 77% 1.9 mph SW3.1 kmh SW 7.0 mph11.3 kmh 30.10 in1019.3 mb 0.00 in0.0 mm 0.00 in0.0 mm 0.01 in0.3 mm
11:21 PM 63.7°F17.6°C 56.4°F13.6°C 77% 2.1 mph SW3.4 kmh SW 7.0 mph11.3 kmh 30.10 in1019.3 mb 0.00 in0.0 mm 0.00 in0.0 mm 0.01 in0.3 mm
11:26 PM 63.6°F17.6°C 56.7°F13.7°C 78% 2.5 mph SW4.0 kmh SW 7.0 mph11.3 kmh 30.10 in1019.3 mb 0.00 in0.0 mm 0.00 in0.0 mm 0.01 in0.3 mm
11:31 PM 63.4°F17.4°C 56.4°F13.6°C 78% 2.8 mph SW4.5 kmh SW 7.0 mph11.3 kmh 30.10 in1019.3 mb 0.00 in0.0 mm 0.00 in0.0 mm 0.01 in0.3 mm
11:36 PM 63.3°F17.4°C 56.7°F13.7°C 79% 3.2 mph SW5.1 kmh SW 7.0 mph11.3 kmh 30.10 in1019.3 mb 0.00 in0.0 mm 0.00 in0.0 mm 0.01 in0.3 mm
11:41 PM 63.1°F17.3°C 56.5°F13.6°C 79% 2.4 mph SSW3.9 kmh SSW 5.0 mph8.0 kmh 30.10 in1019.3 mb 0.00 in0.0 mm 0.00 in0.0 mm 0.01 in0.3 mm
11:46 PM 63.1°F17.3°C 56.9°F13.8°C 80% 2.6 mph SSW4.2 kmh SSW 7.0 mph11.3 kmh 30.09 in1019.0 mb 0.00 in0.0 mm 0.00 in0.0 mm 0.01 in0.3 mm
11:51 PM 63.1°F17.3°C 56.9°F13.8°C 80% 3.7 mph SSW6.0 kmh SSW 8.0 mph12.9 kmh 30.09 in1019.0 mb 0.00 in0.0 mm 0.00 in0.0 mm 0.01 in0.3 mm
11:56 PM 63.1°F17.3°C 56.9°F13.8°C 80% 4.0 mph SW6.4 kmh SW 8.0 mph12.9 kmh 30.09 in1019.0 mb 0.00 in0.0 mm 0.00 in0.0 mm 0.01 in0.3 mm